createdAt,value
2018-09-09T00:00:58.973Z,13.44
2018-09-09T00:01:58.956Z,13.48
2018-09-09T00:02:58.969Z,13.50
2018-09-09T00:03:58.937Z,13.41
2018-09-09T00:04:58.921Z,13.44
2018-09-09T00:05:58.999Z,13.46
2018-09-09T00:06:58.901Z,13.47
2018-09-09T00:07:58.913Z,13.43
2018-09-09T00:08:58.880Z,13.47
2018-09-09T00:09:58.875Z,13.47
2018-09-09T00:10:58.859Z,13.44
2018-09-09T00:11:58.849Z,13.50
2018-09-09T00:12:58.859Z,13.46
2018-09-09T00:13:58.826Z,13.41
2018-09-09T00:14:58.817Z,13.32
2018-09-09T00:15:58.816Z,13.36
2018-09-09T00:16:58.792Z,13.35
2018-09-09T00:17:58.815Z,13.31
2018-09-09T00:18:58.793Z,13.32
2018-09-09T00:19:58.769Z,13.28
2018-09-09T00:20:58.749Z,13.28
2018-09-09T00:21:58.745Z,13.32
2018-09-09T00:22:58.726Z,13.31
2018-09-09T00:23:58.741Z,13.35
2018-09-09T00:24:58.707Z,13.31
2018-09-09T00:25:58.701Z,13.25
2018-09-09T00:26:58.686Z,13.27
2018-09-09T00:27:58.676Z,13.22
2018-09-09T00:28:58.688Z,13.24
2018-09-09T00:29:58.653Z,13.24
2018-09-09T00:30:58.648Z,13.17
2018-09-09T00:31:58.633Z,13.16
2018-09-09T00:32:58.623Z,13.13
2018-09-09T00:33:58.631Z,13.03
2018-09-09T00:34:58.599Z,13.06
2018-09-09T00:35:58.590Z,12.92
2018-09-09T00:36:58.584Z,12.89
2018-09-09T00:37:58.569Z,12.85
2018-09-09T00:38:58.590Z,13.01
2018-09-09T00:39:58.542Z,12.80
2018-09-09T00:40:58.532Z,12.76
2018-09-09T00:41:58.524Z,12.87
2018-09-09T00:42:58.510Z,12.84
2018-09-09T00:43:58.505Z,12.85
2018-09-09T00:44:58.510Z,12.84
2018-09-09T00:45:58.486Z,12.77
2018-09-09T00:46:58.468Z,12.81
2018-09-09T00:47:58.455Z,12.80
2018-09-09T00:48:58.458Z,12.84
2018-09-09T00:49:58.459Z,12.74
2018-09-09T00:50:58.423Z,12.71
2018-09-09T00:51:58.420Z,12.67
2018-09-09T00:52:58.405Z,12.67
2018-09-09T00:53:58.392Z,12.63
2018-09-09T00:54:58.418Z,12.58
2018-09-09T00:55:58.381Z,12.56
2018-09-09T00:56:58.361Z,12.62
2018-09-09T00:57:58.351Z,12.58
2018-09-09T00:58:58.336Z,12.58
2018-09-09T00:59:58.326Z,12.54
2018-09-09T01:00:58.338Z,12.62
2018-09-09T01:01:58.331Z,12.63
2018-09-09T01:02:58.295Z,12.62
2018-09-09T01:03:58.291Z,12.62
2018-09-09T01:04:58.277Z,12.63
2018-09-09T01:05:58.293Z,12.62
2018-09-09T01:06:58.249Z,12.71
2018-09-09T01:07:58.240Z,12.70
2018-09-09T01:08:58.250Z,12.76
2018-09-09T01:09:58.216Z,12.73
2018-09-09T01:10:58.205Z,12.79
2018-09-09T01:11:58.230Z,12.76
2018-09-09T01:12:58.186Z,12.85
2018-09-09T01:13:58.173Z,12.80
2018-09-09T01:14:58.162Z,12.81
2018-09-09T01:15:58.154Z,12.81
2018-09-09T01:16:58.167Z,12.81
2018-09-09T01:17:58.130Z,12.84
2018-09-09T01:18:58.117Z,12.80
2018-09-09T01:19:58.106Z,12.76
2018-09-09T01:20:58.097Z,12.74
2018-09-09T01:21:58.129Z,12.76
2018-09-09T01:22:58.075Z,12.80
2018-09-09T01:23:58.065Z,12.76
2018-09-09T01:24:58.054Z,12.76
2018-09-09T01:25:58.044Z,12.73
2018-09-09T01:26:58.036Z,12.79
2018-09-09T01:27:58.044Z,12.77
2018-09-09T01:28:58.013Z,12.79
2018-09-09T01:29:57.999Z,12.77
2018-09-09T01:30:57.993Z,12.77
2018-09-09T01:31:58.000Z,12.80
2018-09-09T01:32:58.003Z,12.80
2018-09-09T01:33:57.955Z,12.81
2018-09-09T01:34:57.945Z,12.80
2018-09-09T01:35:57.934Z,12.80
2018-09-09T01:36:57.933Z,12.80
2018-09-09T01:37:57.918Z,12.87
2018-09-09T01:38:57.940Z,12.80
2018-09-09T01:39:57.899Z,12.80
2018-09-09T01:40:57.880Z,12.73
2018-09-09T01:41:57.869Z,12.80
2018-09-09T01:42:57.862Z,12.76
2018-09-09T01:43:57.847Z,12.79
2018-09-09T01:44:57.863Z,12.80
2018-09-09T01:45:57.825Z,12.85
2018-09-09T01:46:57.832Z,12.87
2018-09-09T01:47:57.807Z,12.81
2018-09-09T01:48:57.798Z,12.84
2018-09-09T01:49:57.814Z,12.94
2018-09-09T01:50:57.776Z,12.88
2018-09-09T01:51:57.768Z,12.81
2018-09-09T01:52:57.777Z,12.89
2018-09-09T01:53:57.745Z,12.91
2018-09-09T01:54:57.765Z,12.91
2018-09-09T01:55:57.724Z,12.84
2018-09-09T01:56:57.708Z,12.91
2018-09-09T01:57:57.701Z,12.80
2018-09-09T01:58:57.689Z,12.91
2018-09-09T01:59:57.684Z,12.91
2018-09-09T02:00:57.689Z,12.84
2018-09-09T02:01:57.658Z,12.84
2018-09-09T02:02:57.648Z,12.80
2018-09-09T02:03:57.637Z,12.77
2018-09-09T02:04:57.622Z,12.77
2018-09-09T02:05:57.640Z,12.74
2018-09-09T02:06:57.605Z,12.74
2018-09-09T02:07:57.590Z,12.71
2018-09-09T02:08:57.579Z,12.73
2018-09-09T02:09:57.569Z,12.62
2018-09-09T02:10:57.558Z,12.66
2018-09-09T02:11:57.582Z,12.63
2018-09-09T02:12:57.550Z,12.63
2018-09-09T02:13:57.529Z,12.59
2018-09-09T02:14:57.517Z,12.61
2018-09-09T02:15:57.515Z,12.59
2018-09-09T02:16:57.517Z,12.63
2018-09-09T02:17:57.487Z,12.62
2018-09-09T02:18:57.478Z,12.61
2018-09-09T02:19:57.467Z,12.58
2018-09-09T02:20:57.455Z,12.62
2018-09-09T02:21:57.471Z,12.61
2018-09-09T02:22:57.435Z,12.61
2018-09-09T02:23:57.436Z,12.59
2018-09-09T02:24:57.409Z,12.63
2018-09-09T02:25:57.501Z,12.62
2018-09-09T02:26:57.418Z,12.59
2018-09-09T02:27:57.378Z,12.62
2018-09-09T02:28:57.371Z,12.58
2018-09-09T02:29:57.356Z,12.62
2018-09-09T02:30:57.348Z,12.67
2018-09-09T02:31:57.373Z,12.69
2018-09-09T02:32:57.324Z,12.67
2018-09-09T02:33:57.316Z,12.69
2018-09-09T02:34:57.310Z,12.74
2018-09-09T02:35:57.296Z,12.73
2018-09-09T02:36:57.288Z,12.70
2018-09-09T02:37:57.301Z,12.77
2018-09-09T02:38:57.264Z,12.77
2018-09-09T02:39:57.251Z,12.77
2018-09-09T02:40:57.243Z,12.84
2018-09-09T02:41:57.237Z,12.71
2018-09-09T02:42:57.263Z,12.80
2018-09-09T02:43:57.206Z,12.84
2018-09-09T02:44:57.202Z,12.92
2018-09-09T02:45:57.189Z,12.84
2018-09-09T02:46:57.178Z,12.91
2018-09-09T02:47:57.162Z,12.92
2018-09-09T02:48:57.179Z,12.96
2018-09-09T02:49:57.145Z,12.95
2018-09-09T02:50:57.139Z,12.96
2018-09-09T02:51:57.124Z,12.96
2018-09-09T02:52:57.110Z,12.98
2018-09-09T02:53:57.126Z,12.96
2018-09-09T02:54:57.090Z,12.95
2018-09-09T02:55:57.083Z,12.94
2018-09-09T02:56:57.072Z,12.95
2018-09-09T02:57:57.056Z,12.95
2018-09-09T02:58:57.077Z,12.91
2018-09-09T02:59:57.035Z,12.85
2018-09-09T03:00:57.023Z,12.88
2018-09-09T03:01:57.028Z,12.91
2018-09-09T03:02:57.003Z,12.85
2018-09-09T03:03:57.022Z,12.87
2018-09-09T03:04:56.981Z,12.74
2018-09-09T03:05:56.970Z,12.77
2018-09-09T03:06:56.960Z,12.74
2018-09-09T03:07:56.947Z,12.80
2018-09-09T03:08:56.939Z,12.70
2018-09-09T03:09:56.954Z,12.62
2018-09-09T03:10:56.919Z,12.69
2018-09-09T03:11:56.909Z,12.66
2018-09-09T03:12:56.894Z,12.62
2018-09-09T03:13:56.892Z,12.59
2018-09-09T03:14:56.909Z,12.59
2018-09-09T03:15:56.867Z,12.66
2018-09-09T03:16:56.863Z,12.59
2018-09-09T03:17:56.845Z,12.46
2018-09-09T03:18:56.833Z,12.49
2018-09-09T03:19:56.819Z,12.49
2018-09-09T03:20:56.833Z,12.40
2018-09-09T03:21:56.803Z,12.41
2018-09-09T03:22:56.789Z,12.44
2018-09-09T03:23:56.779Z,12.26
2018-09-09T03:24:56.768Z,12.25
2018-09-09T03:25:56.790Z,12.26
2018-09-09T03:26:56.750Z,12.33
2018-09-09T03:27:56.740Z,12.26
2018-09-09T03:28:56.726Z,12.23
2018-09-09T03:29:56.719Z,12.25
2018-09-09T03:30:56.714Z,12.21
2018-09-09T03:31:56.731Z,12.18
2018-09-09T03:32:56.680Z,12.18
2018-09-09T03:33:56.676Z,12.19
2018-09-09T03:34:56.670Z,12.16
2018-09-09T03:35:56.657Z,12.15
2018-09-09T03:36:56.652Z,12.15
2018-09-09T03:37:56.664Z,12.19
2018-09-09T03:38:56.617Z,12.13
2018-09-09T03:39:56.612Z,12.15
2018-09-09T03:40:56.597Z,12.18
2018-09-09T03:41:56.587Z,12.23
2018-09-09T03:42:56.603Z,12.19
2018-09-09T03:43:56.569Z,12.40
2018-09-09T03:44:56.555Z,12.37
2018-09-09T03:45:56.546Z,12.40
2018-09-09T03:46:56.542Z,12.52
2018-09-09T03:47:56.557Z,12.56
2018-09-09T03:48:56.527Z,12.59
2018-09-09T03:49:56.503Z,12.73
2018-09-09T03:50:56.490Z,12.76
2018-09-09T03:51:56.482Z,12.74
2018-09-09T03:52:56.478Z,12.89
2018-09-09T03:53:56.489Z,12.81
2018-09-09T03:54:56.528Z,12.84
2018-09-09T03:55:56.439Z,12.84
2018-09-09T03:56:56.427Z,12.80
2018-09-09T03:57:56.453Z,12.79
2018-09-09T03:58:56.434Z,12.77
2018-09-09T03:59:56.404Z,12.81
2018-09-09T04:00:56.397Z,12.81
2018-09-09T04:01:56.376Z,12.73
2018-09-09T04:02:56.362Z,12.80
2018-09-09T04:03:56.354Z,12.79
2018-09-09T04:04:56.367Z,12.81
2018-09-09T04:05:56.331Z,12.81
2018-09-09T04:06:56.326Z,12.76
2018-09-09T04:07:56.325Z,12.73
2018-09-09T04:08:56.298Z,12.77
2018-09-09T04:09:56.321Z,12.77
2018-09-09T04:10:56.277Z,12.74
2018-09-09T04:11:56.266Z,12.84
2018-09-09T04:12:56.255Z,12.77
2018-09-09T04:13:56.246Z,12.80
2018-09-09T04:14:56.266Z,12.73
2018-09-09T04:15:56.229Z,12.87
2018-09-09T04:16:56.213Z,12.76
2018-09-09T04:17:56.201Z,12.81
2018-09-09T04:18:56.198Z,12.84
2018-09-09T04:19:56.181Z,12.79
2018-09-09T04:20:56.193Z,12.80
2018-09-09T04:21:56.162Z,12.84
2018-09-09T04:22:56.149Z,12.81
2018-09-09T04:23:56.139Z,12.81
2018-09-09T04:24:56.128Z,12.76
2018-09-09T04:25:56.150Z,12.85
2018-09-09T04:26:56.106Z,12.91
2018-09-09T04:27:56.109Z,12.94
2018-09-09T04:28:56.088Z,12.94
2018-09-09T04:29:56.073Z,12.95
2018-09-09T04:30:56.170Z,12.77
2018-09-09T04:31:56.054Z,12.98
2018-09-09T04:32:56.048Z,12.81
2018-09-09T04:33:56.032Z,12.85
2018-09-09T04:34:56.023Z,12.84
2018-09-09T04:35:56.011Z,12.88
2018-09-09T04:36:56.039Z,12.88
2018-09-09T04:37:55.989Z,12.84
2018-09-09T04:38:56.012Z,12.95
2018-09-09T04:39:55.970Z,12.96
2018-09-09T04:40:55.965Z,12.81
2018-09-09T04:41:55.951Z,12.94
2018-09-09T04:42:55.958Z,12.80
2018-09-09T04:43:55.930Z,12.85
2018-09-09T04:44:55.916Z,12.98
2018-09-09T04:45:55.903Z,12.81
2018-09-09T04:46:55.894Z,12.92
2018-09-09T04:47:55.908Z,12.89
2018-09-09T04:48:55.874Z,12.96
2018-09-09T04:49:55.863Z,12.85
2018-09-09T04:50:55.854Z,12.85
2018-09-09T04:51:55.843Z,12.85
2018-09-09T04:52:55.868Z,12.96
2018-09-09T04:53:55.830Z,12.91
2018-09-09T04:54:55.808Z,12.89
2018-09-09T04:55:55.796Z,12.96
2018-09-09T04:56:55.786Z,13.01
2018-09-09T04:57:55.780Z,12.91
2018-09-09T04:58:55.801Z,12.87
2018-09-09T04:59:55.754Z,12.98
2018-09-09T05:00:55.743Z,12.84
2018-09-09T05:01:55.743Z,12.88
2018-09-09T05:02:55.724Z,12.95
2018-09-09T05:03:55.734Z,12.85
2018-09-09T05:04:55.748Z,12.91
2018-09-09T05:05:55.690Z,12.91
2018-09-09T05:06:55.688Z,12.89
2018-09-09T05:07:55.668Z,12.70
2018-09-09T05:08:55.659Z,12.81
2018-09-09T05:09:55.654Z,12.79
2018-09-09T05:10:55.657Z,12.87
2018-09-09T05:11:55.623Z,12.81
2018-09-09T05:12:55.626Z,12.85
2018-09-09T05:13:55.602Z,12.84
2018-09-09T05:14:55.596Z,12.95
2018-09-09T05:15:55.610Z,12.96
2018-09-09T05:16:55.575Z,12.94
2018-09-09T05:17:55.560Z,12.91
2018-09-09T05:18:55.554Z,12.94
2018-09-09T05:19:55.539Z,12.98
2018-09-09T05:20:55.547Z,12.89
2018-09-09T05:21:55.550Z,12.88
2018-09-09T05:22:55.505Z,12.88
2018-09-09T05:23:55.511Z,12.96
2018-09-09T05:24:55.485Z,12.87
2018-09-09T05:25:55.477Z,12.88
2018-09-09T05:26:55.464Z,12.95
2018-09-09T05:27:55.479Z,12.88
2018-09-09T05:28:55.497Z,12.95
2018-09-09T05:29:55.433Z,12.96
2018-09-09T05:30:55.442Z,13.06
2018-09-09T05:31:55.416Z,13.07
2018-09-09T05:32:55.437Z,13.01
2018-09-09T05:33:55.419Z,13.14
2018-09-09T05:34:55.374Z,13.14
2018-09-09T05:35:55.363Z,13.17
2018-09-09T05:36:55.354Z,13.12
2018-09-09T05:37:55.343Z,13.13
2018-09-09T05:38:55.358Z,13.21
2018-09-09T05:39:55.320Z,13.22
2018-09-09T05:40:55.306Z,13.24
2018-09-09T05:41:55.315Z,13.29
2018-09-09T05:42:55.286Z,13.39
2018-09-09T05:43:55.277Z,13.38
2018-09-09T05:44:55.296Z,13.46
2018-09-09T05:45:55.257Z,13.48
2018-09-09T05:46:55.244Z,13.46
2018-09-09T05:47:55.231Z,13.61
2018-09-09T05:48:55.225Z,13.57
2018-09-09T05:49:55.238Z,13.68
2018-09-09T05:50:55.201Z,13.65
2018-09-09T05:51:55.188Z,13.79
2018-09-09T05:52:55.177Z,13.84
2018-09-09T05:53:55.228Z,13.86
2018-09-09T05:54:55.161Z,13.91
2018-09-09T05:55:55.170Z,13.90
2018-09-09T05:56:55.137Z,14.01
2018-09-09T05:57:55.125Z,13.94
2018-09-09T05:58:55.116Z,14.01
2018-09-09T05:59:55.102Z,14.01
2018-09-09T06:00:55.134Z,13.93
2018-09-09T06:01:55.082Z,14.01
2018-09-09T06:02:55.071Z,14.06
2018-09-09T06:03:55.062Z,14.08
2018-09-09T06:04:55.049Z,14.01
2018-09-09T06:05:55.039Z,14.09
2018-09-09T06:06:55.050Z,13.99
2018-09-09T06:07:55.019Z,13.99
2018-09-09T06:08:55.006Z,14.08
2018-09-09T06:09:54.998Z,14.05
2018-09-09T06:10:54.993Z,14.08
2018-09-09T06:11:54.974Z,14.04
2018-09-09T06:12:54.994Z,14.09
2018-09-09T06:13:54.958Z,14.12
2018-09-09T06:14:54.941Z,14.05
2018-09-09T06:15:54.930Z,14.12
2018-09-09T06:16:54.921Z,14.08
2018-09-09T06:17:54.911Z,14.19
2018-09-09T06:18:54.931Z,14.21
2018-09-09T06:19:54.888Z,14.12
2018-09-09T06:20:54.876Z,14.21
2018-09-09T06:21:54.866Z,14.34
2018-09-09T06:22:54.882Z,14.30
2018-09-09T06:23:54.865Z,14.44
2018-09-09T06:24:54.870Z,14.36
2018-09-09T06:25:54.823Z,14.46
2018-09-09T06:26:54.812Z,14.41
2018-09-09T06:27:54.813Z,14.49
2018-09-09T06:28:54.814Z,14.60
2018-09-09T06:29:54.781Z,14.64
2018-09-09T06:30:54.773Z,14.59
2018-09-09T06:31:54.759Z,14.69
2018-09-09T06:32:54.749Z,14.67
2018-09-09T06:33:54.811Z,14.60
2018-09-09T06:34:54.725Z,14.67
2018-09-09T06:35:54.717Z,14.71
2018-09-09T06:36:54.742Z,14.66
2018-09-09T06:37:54.697Z,14.74
2018-09-09T06:38:54.735Z,14.87
2018-09-09T06:39:54.701Z,14.85
2018-09-09T06:40:54.665Z,14.90
2018-09-09T06:41:54.653Z,14.95
2018-09-09T06:42:54.642Z,14.98
2018-09-09T06:43:54.629Z,15.01
2018-09-09T06:44:54.648Z,15.04
2018-09-09T06:45:54.609Z,15.16
2018-09-09T06:46:54.596Z,15.34
2018-09-09T06:47:54.588Z,15.43
2018-09-09T06:48:54.575Z,15.38
2018-09-09T06:49:54.565Z,15.41
2018-09-09T06:50:54.603Z,15.56
2018-09-09T06:51:54.554Z,15.53
2018-09-09T06:52:54.566Z,15.66
2018-09-09T06:53:54.525Z,15.78
2018-09-09T06:54:54.526Z,15.88
2018-09-09T06:55:54.501Z,16.01
2018-09-09T06:56:54.532Z,15.99
2018-09-09T06:57:54.490Z,15.80
2018-09-09T06:58:54.470Z,15.78
2018-09-09T06:59:54.456Z,15.74
2018-09-09T07:00:54.450Z,15.66
2018-09-09T07:01:54.472Z,15.73
2018-09-09T07:02:54.423Z,15.64
2018-09-09T07:03:54.416Z,15.60
2018-09-09T07:04:54.405Z,15.64
2018-09-09T07:05:54.406Z,15.66
2018-09-09T07:06:54.381Z,15.73
2018-09-09T07:07:54.422Z,15.68
2018-09-09T07:08:54.361Z,15.77
2018-09-09T07:09:54.350Z,15.76
2018-09-09T07:10:54.393Z,15.71
2018-09-09T07:11:54.514Z,15.86
2018-09-09T07:12:54.316Z,15.91
2018-09-09T07:13:54.345Z,15.88
2018-09-09T07:14:54.295Z,15.88
2018-09-09T07:15:54.284Z,16.04
2018-09-09T07:16:54.318Z,16.11
2018-09-09T07:17:54.270Z,16.08
2018-09-09T07:18:54.286Z,16.03
2018-09-09T07:19:54.243Z,16.13
2018-09-09T07:20:54.235Z,16.16
2018-09-09T07:21:54.282Z,16.16
2018-09-09T07:22:54.233Z,16.17
2018-09-09T07:23:54.234Z,16.17
2018-09-09T07:24:54.197Z,16.23
2018-09-09T07:25:54.183Z,16.18
2018-09-09T07:26:54.231Z,16.22
2018-09-09T07:27:54.158Z,16.26
2018-09-09T07:28:54.158Z,16.23
2018-09-09T07:29:54.171Z,16.17
2018-09-09T07:30:54.126Z,16.26
2018-09-09T07:31:54.119Z,16.30
2018-09-09T07:32:54.105Z,16.25
2018-09-09T07:33:54.094Z,16.23
2018-09-09T07:34:54.083Z,16.29
2018-09-09T07:35:54.102Z,16.33
2018-09-09T07:36:54.066Z,16.30
2018-09-09T07:37:54.062Z,16.36
2018-09-09T07:38:54.041Z,16.34
2018-09-09T07:39:54.032Z,16.36
2018-09-09T07:40:54.023Z,16.41
2018-09-09T07:41:54.037Z,16.41
2018-09-09T07:42:53.999Z,16.36
2018-09-09T07:43:54.023Z,16.40
2018-09-09T07:44:53.979Z,16.47
2018-09-09T07:45:54.000Z,16.48
2018-09-09T07:46:53.961Z,16.45
2018-09-09T07:47:53.948Z,16.50
2018-09-09T07:48:53.936Z,16.42
2018-09-09T07:49:53.927Z,16.44
2018-09-09T07:50:53.923Z,16.47
2018-09-09T07:51:53.935Z,16.40
2018-09-09T07:52:53.894Z,16.41
2018-09-09T07:53:53.884Z,16.54
2018-09-09T07:54:53.872Z,16.50
2018-09-09T07:55:53.862Z,16.50
2018-09-09T07:56:53.891Z,16.50
2018-09-09T07:57:53.848Z,16.47
2018-09-09T07:58:53.850Z,16.50
2018-09-09T07:59:53.834Z,16.50
2018-09-09T08:00:53.809Z,16.45
2018-09-09T08:01:53.798Z,16.50
2018-09-09T08:02:53.820Z,16.44
2018-09-09T08:03:53.778Z,16.45
2018-09-09T08:04:53.768Z,16.48
2018-09-09T08:05:53.767Z,16.54
2018-09-09T08:06:53.751Z,16.60
2018-09-09T08:07:53.735Z,16.66
2018-09-09T08:08:53.748Z,16.73
2018-09-09T08:09:53.720Z,16.77
2018-09-09T08:10:53.705Z,16.82
2018-09-09T08:11:53.701Z,16.96
2018-09-09T08:12:53.714Z,16.99
2018-09-09T08:13:53.693Z,17.18
2018-09-09T08:14:53.663Z,17.28
2018-09-09T08:15:53.653Z,17.32
2018-09-09T08:16:53.638Z,17.46
2018-09-09T08:17:53.632Z,17.66
2018-09-09T08:18:53.655Z,17.68
2018-09-09T08:19:53.606Z,17.68
2018-09-09T08:20:53.598Z,17.81
2018-09-09T08:21:53.586Z,17.86
2018-09-09T08:22:53.575Z,18.02
2018-09-09T08:23:53.603Z,18.01
2018-09-09T08:24:53.581Z,18.21
2018-09-09T08:25:53.546Z,18.39
2018-09-09T08:26:53.529Z,18.51
2018-09-09T08:27:53.518Z,18.53
2018-09-09T08:28:53.507Z,18.60
2018-09-09T08:29:53.494Z,18.71
2018-09-09T08:30:53.509Z,18.71
2018-09-09T08:31:53.518Z,18.94
2018-09-09T08:32:53.466Z,19.07
2018-09-09T08:33:53.452Z,18.99
2018-09-09T08:34:53.480Z,19.12
2018-09-09T08:35:53.471Z,19.15
2018-09-09T08:36:53.430Z,19.16
2018-09-09T08:37:53.409Z,19.21
2018-09-09T08:38:53.401Z,19.40
2018-09-09T08:39:53.395Z,19.49
2018-09-09T08:40:53.390Z,19.55
2018-09-09T08:41:53.406Z,19.52
2018-09-09T08:42:53.356Z,19.45
2018-09-09T08:43:53.350Z,19.50
2018-09-09T08:44:53.341Z,19.58
2018-09-09T08:45:53.325Z,19.45
2018-09-09T08:46:53.357Z,19.47
2018-09-09T08:47:53.301Z,19.64
2018-09-09T08:48:53.304Z,19.64
2018-09-09T08:49:53.279Z,19.71
2018-09-09T08:50:53.276Z,19.70
2018-09-09T08:51:53.274Z,19.68
2018-09-09T08:52:53.285Z,19.82
2018-09-09T08:53:53.239Z,19.94
2018-09-09T08:54:53.230Z,20.00
2018-09-09T08:55:53.228Z,20.01
2018-09-09T08:56:53.209Z,20.12
2018-09-09T08:57:53.200Z,20.33
2018-09-09T08:58:53.216Z,20.37
2018-09-09T08:59:53.180Z,20.42
2018-09-09T09:00:53.161Z,20.41
2018-09-09T09:01:53.159Z,20.37
2018-09-09T09:02:53.149Z,20.38
2018-09-09T09:03:53.177Z,20.46
2018-09-09T09:04:53.121Z,20.53
2018-09-09T09:05:53.109Z,20.58
2018-09-09T09:06:53.106Z,20.71
2018-09-09T09:07:53.182Z,20.83
2018-09-09T09:08:53.082Z,20.94
2018-09-09T09:09:53.100Z,21.11
2018-09-09T09:10:53.061Z,21.19
2018-09-09T09:11:53.049Z,21.27
2018-09-09T09:12:53.034Z,21.31
2018-09-09T09:13:53.022Z,21.34
2018-09-09T09:14:53.016Z,21.42
2018-09-09T09:15:53.034Z,21.38
2018-09-09T09:16:52.991Z,21.24
2018-09-09T09:17:52.980Z,21.26
2018-09-09T09:18:52.970Z,21.21
2018-09-09T09:19:52.965Z,21.21
2018-09-09T09:20:52.948Z,21.30
2018-09-09T09:21:52.963Z,21.27
2018-09-09T09:22:52.928Z,21.19
2018-09-09T09:23:52.921Z,21.18
2018-09-09T09:24:52.908Z,21.21
2018-09-09T09:25:52.896Z,21.22
2018-09-09T09:26:52.912Z,21.45
2018-09-09T09:27:52.875Z,21.48
2018-09-09T09:28:52.866Z,21.79
2018-09-09T09:29:52.853Z,21.90
2018-09-09T09:30:52.843Z,21.89
2018-09-09T09:31:52.858Z,21.86
2018-09-09T09:32:52.820Z,21.96
2018-09-09T09:33:52.809Z,21.91
2018-09-09T09:34:52.799Z,21.85
2018-09-09T09:35:52.794Z,21.98
2018-09-09T09:36:52.802Z,22.11
2018-09-09T09:37:52.771Z,22.04
2018-09-09T09:38:52.766Z,22.01
2018-09-09T09:39:52.746Z,21.98
2018-09-09T09:40:52.738Z,21.91
2018-09-09T09:41:52.750Z,21.96
2018-09-09T09:42:52.716Z,22.06
2018-09-09T09:43:52.706Z,22.17
2018-09-09T09:44:52.793Z,22.14
2018-09-09T09:45:52.682Z,22.29
2018-09-09T09:46:52.698Z,22.36
2018-09-09T09:47:52.660Z,22.36
2018-09-09T09:48:52.651Z,22.38
2018-09-09T09:49:52.640Z,22.39
2018-09-09T09:50:52.637Z,22.51
2018-09-09T09:51:52.642Z,22.51
2018-09-09T09:52:52.620Z,22.49
2018-09-09T09:53:52.600Z,22.51
2018-09-09T09:54:52.585Z,22.31
2018-09-09T09:55:52.579Z,22.35
2018-09-09T09:56:52.589Z,22.52
2018-09-09T09:57:52.552Z,22.45
2018-09-09T09:58:52.544Z,22.45
2018-09-09T09:59:52.530Z,22.39
2018-09-09T10:00:52.520Z,22.44
2018-09-09T10:01:52.544Z,22.38
2018-09-09T10:02:52.500Z,22.35
2018-09-09T10:03:52.493Z,22.31
2018-09-09T10:04:52.479Z,22.15
2018-09-09T10:05:52.466Z,22.11
2018-09-09T10:06:52.460Z,22.05
2018-09-09T10:07:52.484Z,21.98
2018-09-09T10:08:52.450Z,22.12
2018-09-09T10:09:52.423Z,22.12
2018-09-09T10:10:52.422Z,22.17
2018-09-09T10:11:52.402Z,22.21
2018-09-09T10:12:52.392Z,22.24
2018-09-09T10:13:52.405Z,22.38
2018-09-09T10:14:52.371Z,22.44
2018-09-09T10:15:52.360Z,22.48
2018-09-09T10:16:52.349Z,22.52
2018-09-09T10:17:52.338Z,22.59
2018-09-09T10:18:52.358Z,22.54
2018-09-09T10:19:52.322Z,22.57
2018-09-09T10:20:52.307Z,22.61
2018-09-09T10:21:52.310Z,22.52
2018-09-09T10:22:52.291Z,22.45
2018-09-09T10:23:52.393Z,22.48
2018-09-09T10:24:52.264Z,22.54
2018-09-09T10:25:52.254Z,22.38
2018-09-09T10:26:52.248Z,22.46
2018-09-09T10:27:52.237Z,22.38
2018-09-09T10:28:52.222Z,22.33
2018-09-09T10:29:52.243Z,22.38
2018-09-09T10:30:52.201Z,22.42
2018-09-09T10:31:52.194Z,22.38
2018-09-09T10:32:52.180Z,22.29
2018-09-09T10:33:52.173Z,22.31
2018-09-09T10:34:52.161Z,22.29
2018-09-09T10:35:52.173Z,22.30
2018-09-09T10:36:52.137Z,22.38
2018-09-09T10:37:52.131Z,22.33
2018-09-09T10:38:52.119Z,22.48
2018-09-09T10:39:52.107Z,22.46
2018-09-09T10:40:52.189Z,22.52
2018-09-09T10:41:52.090Z,22.51
2018-09-09T10:42:52.077Z,22.70
2018-09-09T10:43:52.066Z,22.75
2018-09-09T10:44:52.053Z,22.75
2018-09-09T10:45:52.081Z,22.78
2018-09-09T10:46:52.093Z,22.89
2018-09-09T10:47:52.022Z,22.99
2018-09-09T10:48:52.010Z,22.96
2018-09-09T10:49:51.999Z,22.99
2018-09-09T10:50:51.989Z,23.04
2018-09-09T10:51:52.006Z,23.01
2018-09-09T10:52:51.968Z,23.03
2018-09-09T10:53:51.959Z,23.18
2018-09-09T10:54:51.952Z,23.21
2018-09-09T10:55:51.938Z,23.42
2018-09-09T10:56:51.925Z,23.53
2018-09-09T10:57:51.939Z,23.54
2018-09-09T10:58:51.960Z,23.68
2018-09-09T10:59:51.891Z,23.68
2018-09-09T11:00:51.883Z,23.71
2018-09-09T11:01:51.886Z,23.75
2018-09-09T11:02:51.887Z,23.78
2018-09-09T11:03:51.852Z,23.79
2018-09-09T11:04:51.845Z,23.79
2018-09-09T11:05:51.832Z,23.93
2018-09-09T11:06:51.873Z,24.02
2018-09-09T11:07:51.807Z,24.15
2018-09-09T11:08:51.825Z,24.27
2018-09-09T11:09:51.785Z,24.19
2018-09-09T11:10:51.774Z,24.26
2018-09-09T11:11:51.767Z,24.19
2018-09-09T11:12:51.799Z,24.18
2018-09-09T11:13:51.743Z,24.09
2018-09-09T11:14:51.766Z,23.92
2018-09-09T11:15:51.726Z,23.71
2018-09-09T11:16:51.716Z,23.63
2018-09-09T11:17:51.702Z,23.49
2018-09-09T11:18:51.699Z,23.49
2018-09-09T11:19:51.680Z,23.53
2018-09-09T11:20:51.694Z,23.59
2018-09-09T11:21:51.656Z,23.52
2018-09-09T11:22:51.652Z,23.64
2018-09-09T11:23:51.637Z,23.67
2018-09-09T11:24:51.630Z,23.59
2018-09-09T11:25:51.645Z,23.59
2018-09-09T11:26:51.604Z,23.64
2018-09-09T11:27:51.593Z,23.53
2018-09-09T11:28:51.586Z,23.60
2018-09-09T11:29:51.628Z,23.57
2018-09-09T11:30:51.601Z,23.69
2018-09-09T11:31:51.570Z,23.74
2018-09-09T11:32:51.553Z,23.71
2018-09-09T11:33:51.527Z,23.68
2018-09-09T11:34:51.517Z,23.69
2018-09-09T11:35:51.516Z,23.71
2018-09-09T11:36:51.534Z,23.78
2018-09-09T11:37:51.486Z,23.92
2018-09-09T11:38:51.475Z,23.94
2018-09-09T11:39:51.473Z,23.94
2018-09-09T11:40:51.453Z,23.97
2018-09-09T11:41:51.441Z,23.97
2018-09-09T11:42:51.464Z,23.93
2018-09-09T11:43:51.420Z,23.92
2018-09-09T11:44:51.410Z,24.00
2018-09-09T11:45:51.405Z,23.96
2018-09-09T11:46:51.391Z,23.97
2018-09-09T11:47:51.411Z,23.96
2018-09-09T11:48:51.387Z,23.93
2018-09-09T11:49:51.358Z,23.93
2018-09-09T11:50:51.345Z,24.06
2018-09-09T11:51:51.342Z,24.27
2018-09-09T11:52:51.358Z,24.67
2018-09-09T11:53:51.319Z,25.38
2018-09-09T11:54:51.303Z,26.23
2018-09-09T11:55:51.295Z,27.06
2018-09-09T11:56:51.282Z,27.99
2018-09-09T11:57:51.274Z,28.95
2018-09-09T11:58:51.298Z,29.55
2018-09-09T11:59:51.254Z,30.25
2018-09-09T12:00:51.261Z,30.90
2018-09-09T12:01:51.266Z,30.81
2018-09-09T12:02:51.221Z,30.72
2018-09-09T12:03:51.211Z,31.09
2018-09-09T12:04:51.231Z,31.04
2018-09-09T12:05:51.191Z,30.49
2018-09-09T12:06:51.191Z,30.04
2018-09-09T12:07:51.171Z,29.89
2018-09-09T12:08:51.159Z,30.03
2018-09-09T12:09:51.186Z,29.79
2018-09-09T12:10:51.148Z,29.85
2018-09-09T12:11:51.131Z,29.85
2018-09-09T12:12:51.122Z,30.25
2018-09-09T12:13:51.113Z,30.97
2018-09-09T12:14:51.125Z,31.20
2018-09-09T12:15:51.090Z,31.42
2018-09-09T12:16:51.081Z,31.68
2018-09-09T12:17:51.071Z,32.03
2018-09-09T12:18:51.067Z,32.07
2018-09-09T12:19:51.087Z,32.31
2018-09-09T12:20:51.043Z,32.31
2018-09-09T12:21:51.025Z,32.03
2018-09-09T12:22:51.014Z,31.97
2018-09-09T12:23:51.006Z,32.05
2018-09-09T12:24:51.012Z,31.50
2018-09-09T12:25:51.023Z,30.75
2018-09-09T12:26:50.973Z,30.49
2018-09-09T12:27:50.967Z,30.67
2018-09-09T12:28:50.953Z,30.59
2018-09-09T12:29:50.942Z,30.38
2018-09-09T12:30:50.956Z,30.49
2018-09-09T12:31:50.958Z,30.76
2018-09-09T12:32:50.991Z,31.00
2018-09-09T12:33:50.905Z,31.28
2018-09-09T12:34:50.898Z,31.25
2018-09-09T12:35:50.893Z,31.30
2018-09-09T12:36:50.871Z,31.28
2018-09-09T12:37:50.956Z,31.18
2018-09-09T12:38:50.851Z,31.25
2018-09-09T12:39:50.855Z,30.78
2018-09-09T12:40:50.834Z,30.82
2018-09-09T12:41:50.822Z,30.59
2018-09-09T12:42:50.846Z,30.25
2018-09-09T12:43:50.803Z,29.95
2018-09-09T12:44:50.790Z,29.85
2018-09-09T12:45:50.780Z,30.34
2018-09-09T12:46:50.774Z,30.54
2018-09-09T12:47:50.762Z,30.22
2018-09-09T12:48:50.906Z,29.78
2018-09-09T12:49:50.749Z,29.35
2018-09-09T12:50:50.735Z,29.10
2018-09-09T12:51:50.726Z,29.21
2018-09-09T12:52:50.711Z,29.30